sensor_id;sensor_type;location;lat;lon;timestamp;P1;durP1;ratioP1;P2;durP2;ratioP2
29320;SDS011;16323;51.130;6.612;2022-10-16T00:00:46;1.20;;;0.55;;
29320;SDS011;16323;51.130;6.612;2022-10-16T00:03:13;1.13;;;0.68;;
29320;SDS011;16323;51.130;6.612;2022-10-16T00:05:40;1.73;;;0.60;;
29320;SDS011;16323;51.130;6.612;2022-10-16T00:08:08;1.02;;;0.50;;
29320;SDS011;16323;51.130;6.612;2022-10-16T00:10:37;0.60;;;0.40;;
29320;SDS011;16323;51.130;6.612;2022-10-16T00:13:04;0.75;;;0.50;;
29320;SDS011;16323;51.130;6.612;2022-10-16T00:15:32;0.75;;;0.45;;
29320;SDS011;16323;51.130;6.612;2022-10-16T00:18:01;0.70;;;0.45;;
29320;SDS011;16323;51.130;6.612;2022-10-16T00:20:28;0.75;;;0.50;;
29320;SDS011;16323;51.130;6.612;2022-10-16T00:22:56;0.95;;;0.40;;
29320;SDS011;16323;51.130;6.612;2022-10-16T00:25:22;0.73;;;0.50;;
29320;SDS011;16323;51.130;6.612;2022-10-16T00:27:51;0.90;;;0.60;;
29320;SDS011;16323;51.130;6.612;2022-10-16T00:30:17;0.70;;;0.47;;
29320;SDS011;16323;51.130;6.612;2022-10-16T00:32:44;0.98;;;0.50;;
29320;SDS011;16323;51.130;6.612;2022-10-16T00:35:11;0.80;;;0.45;;
29320;SDS011;16323;51.130;6.612;2022-10-16T00:37:38;0.60;;;0.50;;
29320;SDS011;16323;51.130;6.612;2022-10-16T00:40:05;0.70;;;0.43;;
29320;SDS011;16323;51.130;6.612;2022-10-16T00:42:32;0.40;;;0.40;;
29320;SDS011;16323;51.130;6.612;2022-10-16T00:45:00;0.40;;;0.30;;
29320;SDS011;16323;51.130;6.612;2022-10-16T00:47:29;0.47;;;0.32;;
29320;SDS011;16323;51.130;6.612;2022-10-16T00:49:59;0.88;;;0.57;;
29320;SDS011;16323;51.130;6.612;2022-10-16T00:52:30;0.63;;;0.40;;
29320;SDS011;16323;51.130;6.612;2022-10-16T00:54:57;0.82;;;0.40;;
29320;SDS011;16323;51.130;6.612;2022-10-16T00:57:26;0.30;;;0.30;;
29320;SDS011;16323;51.130;6.612;2022-10-16T00:59:53;0.90;;;0.40;;
29320;SDS011;16323;51.130;6.612;2022-10-16T01:02:21;0.65;;;0.47;;
29320;SDS011;16323;51.130;6.612;2022-10-16T01:04:48;0.82;;;0.40;;
29320;SDS011;16323;51.130;6.612;2022-10-16T01:07:20;0.63;;;0.40;;
29320;SDS011;16323;51.130;6.612;2022-10-16T01:09:57;0.40;;;0.40;;
29320;SDS011;16323;51.130;6.612;2022-10-16T01:12:33;0.32;;;0.30;;
29320;SDS011;16323;51.130;6.612;2022-10-16T01:15:08;0.70;;;0.40;;
29320;SDS011;16323;51.130;6.612;2022-10-16T01:17:43;0.40;;;0.30;;
29320;SDS011;16323;51.130;6.612;2022-10-16T01:20:16;0.55;;;0.45;;
29320;SDS011;16323;51.130;6.612;2022-10-16T01:22:57;0.55;;;0.40;;
29320;SDS011;16323;51.130;6.612;2022-10-16T01:25:31;0.30;;;0.30;;
29320;SDS011;16323;51.130;6.612;2022-10-16T01:28:13;1.25;;;0.40;;
29320;SDS011;16323;51.130;6.612;2022-10-16T01:30:43;0.63;;;0.40;;
29320;SDS011;16323;51.130;6.612;2022-10-16T01:33:14;0.73;;;0.30;;
29320;SDS011;16323;51.130;6.612;2022-10-16T01:35:46;0.95;;;0.45;;
29320;SDS011;16323;51.130;6.612;2022-10-16T01:38:19;0.38;;;0.38;;
29320;SDS011;16323;51.130;6.612;2022-10-16T01:40:51;0.88;;;0.40;;
29320;SDS011;16323;51.130;6.612;2022-10-16T01:43:24;0.40;;;0.40;;
29320;SDS011;16323;51.130;6.612;2022-10-16T01:45:54;0.63;;;0.43;;
29320;SDS011;16323;51.130;6.612;2022-10-16T01:48:21;0.43;;;0.30;;
29320;SDS011;16323;51.130;6.612;2022-10-16T01:50:52;0.38;;;0.28;;
29320;SDS011;16323;51.130;6.612;2022-10-16T01:53:21;0.20;;;0.20;;
29320;SDS011;16323;51.130;6.612;2022-10-16T01:55:49;0.55;;;0.30;;
29320;SDS011;16323;51.130;6.612;2022-10-16T01:58:18;0.45;;;0.32;;
29320;SDS011;16323;51.130;6.612;2022-10-16T02:00:46;0.73;;;0.30;;
29320;SDS011;16323;51.130;6.612;2022-10-16T02:03:14;0.55;;;0.30;;
29320;SDS011;16323;51.130;6.612;2022-10-16T02:05:45;0.30;;;0.28;;
29320;SDS011;16323;51.130;6.612;2022-10-16T02:08:14;0.65;;;0.32;;
29320;SDS011;16323;51.130;6.612;2022-10-16T02:10:40;0.30;;;0.20;;
29320;SDS011;16323;51.130;6.612;2022-10-16T02:13:09;0.98;;;0.30;;
29320;SDS011;16323;51.130;6.612;2022-10-16T02:15:38;0.20;;;0.20;;
29320;SDS011;16323;51.130;6.612;2022-10-16T02:18:06;0.45;;;0.30;;
29320;SDS011;16323;51.130;6.612;2022-10-16T02:20:36;0.80;;;0.38;;
29320;SDS011;16323;51.130;6.612;2022-10-16T02:23:08;0.30;;;0.30;;
29320;SDS011;16323;51.130;6.612;2022-10-16T02:25:40;0.32;;;0.30;;
29320;SDS011;16323;51.130;6.612;2022-10-16T02:28:11;0.30;;;0.30;;
29320;SDS011;16323;51.130;6.612;2022-10-16T02:30:43;0.77;;;0.30;;
29320;SDS011;16323;51.130;6.612;2022-10-16T02:33:15;0.32;;;0.30;;
29320;SDS011;16323;51.130;6.612;2022-10-16T02:35:44;0.40;;;0.32;;
29320;SDS011;16323;51.130;6.612;2022-10-16T02:38:13;0.73;;;0.45;;
29320;SDS011;16323;51.130;6.612;2022-10-16T02:40:41;1.02;;;0.50;;
29320;SDS011;16323;51.130;6.612;2022-10-16T02:43:08;0.30;;;0.30;;
29320;SDS011;16323;51.130;6.612;2022-10-16T02:45:36;0.38;;;0.30;;
29320;SDS011;16323;51.130;6.612;2022-10-16T02:48:03;1.05;;;0.47;;
29320;SDS011;16323;51.130;6.612;2022-10-16T02:50:31;0.25;;;0.25;;
29320;SDS011;16323;51.130;6.612;2022-10-16T02:52:58;0.30;;;0.20;;
29320;SDS011;16323;51.130;6.612;2022-10-16T02:55:25;0.20;;;0.20;;
29320;SDS011;16323;51.130;6.612;2022-10-16T02:57:52;0.28;;;0.20;;
29320;SDS011;16323;51.130;6.612;2022-10-16T03:00:20;0.20;;;0.20;;
29320;SDS011;16323;51.130;6.612;2022-10-16T03:05:19;0.43;;;0.20;;
29320;SDS011;16323;51.130;6.612;2022-10-16T03:07:47;0.45;;;0.20;;
29320;SDS011;16323;51.130;6.612;2022-10-16T03:10:14;0.25;;;0.20;;
29320;SDS011;16323;51.130;6.612;2022-10-16T03:12:41;0.15;;;0.10;;
29320;SDS011;16323;51.130;6.612;2022-10-16T03:15:08;1.98;;;0.30;;
29320;SDS011;16323;51.130;6.612;2022-10-16T03:17:35;0.70;;;0.40;;
29320;SDS011;16323;51.130;6.612;2022-10-16T03:20:02;0.20;;;0.20;;
29320;SDS011;16323;51.130;6.612;2022-10-16T03:22:30;0.40;;;0.30;;
29320;SDS011;16323;51.130;6.612;2022-10-16T03:24:58;0.20;;;0.20;;
29320;SDS011;16323;51.130;6.612;2022-10-16T03:27:25;0.50;;;0.30;;
29320;SDS011;16323;51.130;6.612;2022-10-16T03:29:51;0.20;;;0.20;;
29320;SDS011;16323;51.130;6.612;2022-10-16T03:32:18;0.20;;;0.20;;
29320;SDS011;16323;51.130;6.612;2022-10-16T03:34:46;0.10;;;0.10;;
29320;SDS011;16323;51.130;6.612;2022-10-16T03:37:13;0.38;;;0.28;;
29320;SDS011;16323;51.130;6.612;2022-10-16T03:39:40;0.35;;;0.30;;
29320;SDS011;16323;51.130;6.612;2022-10-16T03:42:08;0.35;;;0.30;;
29320;SDS011;16323;51.130;6.612;2022-10-16T03:44:34;0.47;;;0.40;;
29320;SDS011;16323;51.130;6.612;2022-10-16T03:47:01;0.20;;;0.20;;
29320;SDS011;16323;51.130;6.612;2022-10-16T03:49:28;0.25;;;0.20;;
29320;SDS011;16323;51.130;6.612;2022-10-16T03:52:02;0.30;;;0.30;;
29320;SDS011;16323;51.130;6.612;2022-10-16T03:54:28;0.20;;;0.20;;
29320;SDS011;16323;51.130;6.612;2022-10-16T03:56:55;0.38;;;0.22;;
29320;SDS011;16323;51.130;6.612;2022-10-16T03:59:23;0.52;;;0.30;;
29320;SDS011;16323;51.130;6.612;2022-10-16T04:01:50;0.20;;;0.20;;
29320;SDS011;16323;51.130;6.612;2022-10-16T04:04:17;0.95;;;0.30;;
29320;SDS011;16323;51.130;6.612;2022-10-16T04:06:44;0.50;;;0.30;;
29320;SDS011;16323;51.130;6.612;2022-10-16T04:09:10;1.33;;;0.30;;
29320;SDS011;16323;51.130;6.612;2022-10-16T04:11:37;0.13;;;0.10;;
29320;SDS011;16323;51.130;6.612;2022-10-16T04:14:04;0.10;;;0.10;;
29320;SDS011;16323;51.130;6.612;2022-10-16T04:16:33;0.43;;;0.20;;
29320;SDS011;16323;51.130;6.612;2022-10-16T04:19:00;0.30;;;0.30;;
29320;SDS011;16323;51.130;6.612;2022-10-16T04:21:27;0.52;;;0.20;;
29320;SDS011;16323;51.130;6.612;2022-10-16T04:23:53;0.17;;;0.17;;
29320;SDS011;16323;51.130;6.612;2022-10-16T04:26:21;0.13;;;0.13;;
29320;SDS011;16323;51.130;6.612;2022-10-16T04:28:48;0.32;;;0.20;;
29320;SDS011;16323;51.130;6.612;2022-10-16T04:31:15;0.20;;;0.20;;
29320;SDS011;16323;51.130;6.612;2022-10-16T04:33:43;0.55;;;0.20;;
29320;SDS011;16323;51.130;6.612;2022-10-16T04:36:10;0.25;;;0.25;;
29320;SDS011;16323;51.130;6.612;2022-10-16T04:38:37;0.50;;;0.25;;
29320;SDS011;16323;51.130;6.612;2022-10-16T04:41:04;0.15;;;0.15;;
29320;SDS011;16323;51.130;6.612;2022-10-16T04:43:31;0.20;;;0.20;;
29320;SDS011;16323;51.130;6.612;2022-10-16T04:45:59;0.20;;;0.20;;
29320;SDS011;16323;51.130;6.612;2022-10-16T04:48:26;0.47;;;0.17;;
29320;SDS011;16323;51.130;6.612;2022-10-16T04:50:54;0.10;;;0.10;;
29320;SDS011;16323;51.130;6.612;2022-10-16T04:53:21;0.20;;;0.17;;
29320;SDS011;16323;51.130;6.612;2022-10-16T04:55:48;0.20;;;0.20;;
29320;SDS011;16323;51.130;6.612;2022-10-16T04:58:15;0.30;;;0.20;;
29320;SDS011;16323;51.130;6.612;2022-10-16T05:00:44;0.10;;;0.10;;
29320;SDS011;16323;51.130;6.612;2022-10-16T05:03:11;0.10;;;0.10;;
29320;SDS011;16323;51.130;6.612;2022-10-16T05:05:41;0.38;;;0.32;;
29320;SDS011;16323;51.130;6.612;2022-10-16T05:08:10;0.55;;;0.20;;
29320;SDS011;16323;51.130;6.612;2022-10-16T05:10:38;1.10;;;0.32;;
29320;SDS011;16323;51.130;6.612;2022-10-16T05:13:05;0.57;;;0.17;;
29320;SDS011;16323;51.130;6.612;2022-10-16T05:15:31;0.57;;;0.20;;
29320;SDS011;16323;51.130;6.612;2022-10-16T05:17:58;0.30;;;0.22;;
29320;SDS011;16323;51.130;6.612;2022-10-16T05:20:25;0.22;;;0.20;;
29320;SDS011;16323;51.130;6.612;2022-10-16T05:22:52;0.22;;;0.10;;
29320;SDS011;16323;51.130;6.612;2022-10-16T05:25:20;0.47;;;0.17;;
29320;SDS011;16323;51.130;6.612;2022-10-16T05:27:51;0.28;;;0.28;;
29320;SDS011;16323;51.130;6.612;2022-10-16T05:30:18;0.10;;;0.10;;
29320;SDS011;16323;51.130;6.612;2022-10-16T05:32:46;0.20;;;0.20;;
29320;SDS011;16323;51.130;6.612;2022-10-16T05:35:13;0.30;;;0.30;;
29320;SDS011;16323;51.130;6.612;2022-10-16T05:37:40;0.20;;;0.20;;
29320;SDS011;16323;51.130;6.612;2022-10-16T05:40:07;0.68;;;0.30;;
29320;SDS011;16323;51.130;6.612;2022-10-16T05:42:36;0.25;;;0.25;;
29320;SDS011;16323;51.130;6.612;2022-10-16T05:45:03;0.73;;;0.38;;
29320;SDS011;16323;51.130;6.612;2022-10-16T05:47:31;0.65;;;0.20;;
29320;SDS011;16323;51.130;6.612;2022-10-16T05:49:58;0.38;;;0.25;;
29320;SDS011;16323;51.130;6.612;2022-10-16T05:52:27;0.13;;;0.13;;
29320;SDS011;16323;51.130;6.612;2022-10-16T05:54:54;0.20;;;0.20;;
29320;SDS011;16323;51.130;6.612;2022-10-16T05:57:21;0.20;;;0.20;;
29320;SDS011;16323;51.130;6.612;2022-10-16T05:59:49;0.40;;;0.28;;
29320;SDS011;16323;51.130;6.612;2022-10-16T06:02:16;0.52;;;0.20;;
29320;SDS011;16323;51.130;6.612;2022-10-16T06:04:42;0.73;;;0.28;;
29320;SDS011;16323;51.130;6.612;2022-10-16T06:07:09;0.38;;;0.30;;
29320;SDS011;16323;51.130;6.612;2022-10-16T06:09:36;0.20;;;0.20;;
29320;SDS011;16323;51.130;6.612;2022-10-16T06:12:03;0.17;;;0.13;;
29320;SDS011;16323;51.130;6.612;2022-10-16T06:14:30;0.25;;;0.25;;
29320;SDS011;16323;51.130;6.612;2022-10-16T06:16:58;2.13;;;0.30;;
29320;SDS011;16323;51.130;6.612;2022-10-16T06:19:24;0.20;;;0.20;;
29320;SDS011;16323;51.130;6.612;2022-10-16T06:21:51;0.20;;;0.20;;
29320;SDS011;16323;51.130;6.612;2022-10-16T06:24:18;0.55;;;0.30;;
29320;SDS011;16323;51.130;6.612;2022-10-16T06:26:45;0.30;;;0.20;;
29320;SDS011;16323;51.130;6.612;2022-10-16T06:29:12;0.40;;;0.20;;
29320;SDS011;16323;51.130;6.612;2022-10-16T06:31:38;5.22;;;0.20;;
29320;SDS011;16323;51.130;6.612;2022-10-16T06:34:08;0.88;;;0.40;;
29320;SDS011;16323;51.130;6.612;2022-10-16T06:36:36;0.35;;;0.30;;
29320;SDS011;16323;51.130;6.612;2022-10-16T06:39:03;0.20;;;0.20;;
29320;SDS011;16323;51.130;6.612;2022-10-16T06:41:32;0.40;;;0.25;;
29320;SDS011;16323;51.130;6.612;2022-10-16T06:44:01;0.15;;;0.10;;
29320;SDS011;16323;51.130;6.612;2022-10-16T06:46:27;0.55;;;0.30;;
29320;SDS011;16323;51.130;6.612;2022-10-16T06:48:54;0.30;;;0.20;;
29320;SDS011;16323;51.130;6.612;2022-10-16T06:51:23;0.90;;;0.40;;
29320;SDS011;16323;51.130;6.612;2022-10-16T06:53:51;0.10;;;0.10;;
29320;SDS011;16323;51.130;6.612;2022-10-16T06:56:19;0.30;;;0.30;;
29320;SDS011;16323;51.130;6.612;2022-10-16T06:58:48;0.52;;;0.30;;
29320;SDS011;16323;51.130;6.612;2022-10-16T07:01:16;0.68;;;0.20;;
29320;SDS011;16323;51.130;6.612;2022-10-16T07:03:44;1.38;;;0.30;;
29320;SDS011;16323;51.130;6.612;2022-10-16T07:06:12;0.23;;;0.23;;
29320;SDS011;16323;51.130;6.612;2022-10-16T07:08:42;2.47;;;0.45;;
29320;SDS011;16323;51.130;6.612;2022-10-16T07:11:11;1.60;;;0.30;;
29320;SDS011;16323;51.130;6.612;2022-10-16T07:13:40;0.85;;;0.32;;
29320;SDS011;16323;51.130;6.612;2022-10-16T07:16:09;0.20;;;0.20;;
29320;SDS011;16323;51.130;6.612;2022-10-16T07:18:37;0.30;;;0.10;;
29320;SDS011;16323;51.130;6.612;2022-10-16T07:21:05;4.68;;;0.30;;
29320;SDS011;16323;51.130;6.612;2022-10-16T07:23:33;0.93;;;0.20;;
29320;SDS011;16323;51.130;6.612;2022-10-16T07:26:02;0.75;;;0.20;;
29320;SDS011;16323;51.130;6.612;2022-10-16T07:28:29;0.52;;;0.30;;
29320;SDS011;16323;51.130;6.612;2022-10-16T07:30:59;0.60;;;0.30;;
29320;SDS011;16323;51.130;6.612;2022-10-16T07:33:27;0.20;;;0.20;;
29320;SDS011;16323;51.130;6.612;2022-10-16T07:35:54;0.40;;;0.38;;
29320;SDS011;16323;51.130;6.612;2022-10-16T07:38:21;0.30;;;0.30;;
29320;SDS011;16323;51.130;6.612;2022-10-16T07:40:55;0.52;;;0.30;;
29320;SDS011;16323;51.130;6.612;2022-10-16T07:43:24;1.10;;;0.50;;
29320;SDS011;16323;51.130;6.612;2022-10-16T07:45:51;0.35;;;0.32;;
29320;SDS011;16323;51.130;6.612;2022-10-16T07:48:19;1.85;;;0.30;;
29320;SDS011;16323;51.130;6.612;2022-10-16T07:53:23;0.57;;;0.20;;
29320;SDS011;16323;51.130;6.612;2022-10-16T07:55:49;0.25;;;0.15;;
29320;SDS011;16323;51.130;6.612;2022-10-16T07:58:16;0.22;;;0.22;;
29320;SDS011;16323;51.130;6.612;2022-10-16T08:00:44;0.98;;;0.25;;
29320;SDS011;16323;51.130;6.612;2022-10-16T08:03:11;4.60;;;0.30;;
29320;SDS011;16323;51.130;6.612;2022-10-16T08:05:38;0.30;;;0.20;;
29320;SDS011;16323;51.130;6.612;2022-10-16T08:08:04;0.93;;;0.30;;
29320;SDS011;16323;51.130;6.612;2022-10-16T08:10:31;0.35;;;0.20;;
29320;SDS011;16323;51.130;6.612;2022-10-16T08:12:58;0.43;;;0.20;;
29320;SDS011;16323;51.130;6.612;2022-10-16T08:15:25;0.43;;;0.30;;
29320;SDS011;16323;51.130;6.612;2022-10-16T08:17:57;0.32;;;0.32;;
29320;SDS011;16323;51.130;6.612;2022-10-16T08:20:25;0.52;;;0.30;;
29320;SDS011;16323;51.130;6.612;2022-10-16T08:22:52;0.35;;;0.30;;
29320;SDS011;16323;51.130;6.612;2022-10-16T08:25:20;0.38;;;0.30;;
29320;SDS011;16323;51.130;6.612;2022-10-16T08:27:47;2.05;;;0.40;;
29320;SDS011;16323;51.130;6.612;2022-10-16T08:33:19;0.22;;;0.17;;
29320;SDS011;16323;51.130;6.612;2022-10-16T08:35:50;0.60;;;0.30;;
29320;SDS011;16323;51.130;6.612;2022-10-16T08:38:18;0.75;;;0.30;;
29320;SDS011;16323;51.130;6.612;2022-10-16T08:40:45;1.20;;;0.40;;
29320;SDS011;16323;51.130;6.612;2022-10-16T08:43:21;0.57;;;0.30;;
29320;SDS011;16323;51.130;6.612;2022-10-16T08:46:09;0.50;;;0.20;;
29320;SDS011;16323;51.130;6.612;2022-10-16T08:48:49;1.10;;;0.40;;
29320;SDS011;16323;51.130;6.612;2022-10-16T08:51:18;1.10;;;0.37;;
29320;SDS011;16323;51.130;6.612;2022-10-16T08:53:49;0.45;;;0.30;;
29320;SDS011;16323;51.130;6.612;2022-10-16T08:56:20;1.20;;;0.40;;
29320;SDS011;16323;51.130;6.612;2022-10-16T08:58:47;1.27;;;0.40;;
29320;SDS011;16323;51.130;6.612;2022-10-16T09:01:15;0.40;;;0.30;;
29320;SDS011;16323;51.130;6.612;2022-10-16T09:06:59;0.77;;;0.40;;
29320;SDS011;16323;51.130;6.612;2022-10-16T09:09:35;0.70;;;0.30;;
29320;SDS011;16323;51.130;6.612;2022-10-16T09:12:10;0.60;;;0.28;;
29320;SDS011;16323;51.130;6.612;2022-10-16T09:14:43;1.05;;;0.30;;
29320;SDS011;16323;51.130;6.612;2022-10-16T09:17:25;0.95;;;0.35;;
29320;SDS011;16323;51.130;6.612;2022-10-16T09:20:25;0.70;;;0.30;;
29320;SDS011;16323;51.130;6.612;2022-10-16T09:23:16;0.43;;;0.20;;
29320;SDS011;16323;51.130;6.612;2022-10-16T09:25:45;0.95;;;0.32;;
29320;SDS011;16323;51.130;6.612;2022-10-16T09:28:14;0.75;;;0.30;;
29320;SDS011;16323;51.130;6.612;2022-10-16T09:30:41;0.65;;;0.30;;
29320;SDS011;16323;51.130;6.612;2022-10-16T09:33:09;0.50;;;0.30;;
29320;SDS011;16323;51.130;6.612;2022-10-16T09:35:37;2.45;;;0.30;;
29320;SDS011;16323;51.130;6.612;2022-10-16T09:38:06;0.85;;;0.30;;
29320;SDS011;16323;51.130;6.612;2022-10-16T09:40:35;0.75;;;0.40;;
29320;SDS011;16323;51.130;6.612;2022-10-16T09:45:59;0.38;;;0.20;;
29320;SDS011;16323;51.130;6.612;2022-10-16T09:48:28;0.60;;;0.20;;
29320;SDS011;16323;51.130;6.612;2022-10-16T09:51:00;1.30;;;0.30;;
29320;SDS011;16323;51.130;6.612;2022-10-16T09:53:37;0.43;;;0.25;;
29320;SDS011;16323;51.130;6.612;2022-10-16T09:56:07;0.57;;;0.30;;
29320;SDS011;16323;51.130;6.612;2022-10-16T09:58:41;0.70;;;0.20;;
29320;SDS011;16323;51.130;6.612;2022-10-16T10:01:11;0.20;;;0.10;;
29320;SDS011;16323;51.130;6.612;2022-10-16T10:03:40;0.30;;;0.28;;
29320;SDS011;16323;51.130;6.612;2022-10-16T10:06:15;0.90;;;0.30;;
29320;SDS011;16323;51.130;6.612;2022-10-16T10:08:57;2.40;;;0.30;;
29320;SDS011;16323;51.130;6.612;2022-10-16T10:14:20;1.48;;;0.40;;
29320;SDS011;16323;51.130;6.612;2022-10-16T10:16:50;0.20;;;0.20;;
29320;SDS011;16323;51.130;6.612;2022-10-16T10:19:18;1.13;;;0.38;;
29320;SDS011;16323;51.130;6.612;2022-10-16T10:21:46;1.00;;;0.40;;
29320;SDS011;16323;51.130;6.612;2022-10-16T10:24:13;0.43;;;0.40;;
29320;SDS011;16323;51.130;6.612;2022-10-16T10:26:45;0.90;;;0.25;;
29320;SDS011;16323;51.130;6.612;2022-10-16T10:29:25;0.28;;;0.20;;
29320;SDS011;16323;51.130;6.612;2022-10-16T10:32:05;0.60;;;0.20;;
29320;SDS011;16323;51.130;6.612;2022-10-16T10:34:51;0.45;;;0.20;;
29320;SDS011;16323;51.130;6.612;2022-10-16T10:37:34;0.30;;;0.17;;
29320;SDS011;16323;51.130;6.612;2022-10-16T10:40:13;0.50;;;0.28;;
29320;SDS011;16323;51.130;6.612;2022-10-16T10:42:51;1.67;;;0.40;;
29320;SDS011;16323;51.130;6.612;2022-10-16T10:45:26;0.47;;;0.20;;
29320;SDS011;16323;51.130;6.612;2022-10-16T10:48:00;0.15;;;0.15;;
29320;SDS011;16323;51.130;6.612;2022-10-16T10:50:39;0.30;;;0.20;;
29320;SDS011;16323;51.130;6.612;2022-10-16T10:53:15;0.90;;;0.20;;
29320;SDS011;16323;51.130;6.612;2022-10-16T10:55:51;0.35;;;0.20;;
29320;SDS011;16323;51.130;6.612;2022-10-16T10:58:33;1.05;;;0.30;;
29320;SDS011;16323;51.130;6.612;2022-10-16T11:01:10;0.20;;;0.20;;
29320;SDS011;16323;51.130;6.612;2022-10-16T11:03:51;1.00;;;0.25;;
29320;SDS011;16323;51.130;6.612;2022-10-16T11:06:28;0.28;;;0.28;;
29320;SDS011;16323;51.130;6.612;2022-10-16T11:09:00;0.38;;;0.20;;
29320;SDS011;16323;51.130;6.612;2022-10-16T11:11:34;0.28;;;0.13;;
29320;SDS011;16323;51.130;6.612;2022-10-16T11:14:11;0.60;;;0.15;;
29320;SDS011;16323;51.130;6.612;2022-10-16T11:16:43;0.08;;;0.03;;
29320;SDS011;16323;51.130;6.612;2022-10-16T11:19:18;0.30;;;0.20;;
29320;SDS011;16323;51.130;6.612;2022-10-16T11:21:56;0.80;;;0.30;;
29320;SDS011;16323;51.130;6.612;2022-10-16T11:24:32;0.30;;;0.30;;
29320;SDS011;16323;51.130;6.612;2022-10-16T11:27:08;0.20;;;0.20;;
29320;SDS011;16323;51.130;6.612;2022-10-16T11:29:40;0.60;;;0.20;;
29320;SDS011;16323;51.130;6.612;2022-10-16T11:32:15;0.73;;;0.20;;
29320;SDS011;16323;51.130;6.612;2022-10-16T11:34:47;0.47;;;0.20;;
29320;SDS011;16323;51.130;6.612;2022-10-16T11:37:18;0.20;;;0.17;;
29320;SDS011;16323;51.130;6.612;2022-10-16T11:39:48;0.20;;;0.15;;
29320;SDS011;16323;51.130;6.612;2022-10-16T11:42:19;0.65;;;0.20;;
29320;SDS011;16323;51.130;6.612;2022-10-16T11:44:51;0.40;;;0.30;;
29320;SDS011;16323;51.130;6.612;2022-10-16T11:47:25;0.43;;;0.10;;
29320;SDS011;16323;51.130;6.612;2022-10-16T11:49:57;0.38;;;0.20;;
29320;SDS011;16323;51.130;6.612;2022-10-16T11:52:28;0.30;;;0.20;;
29320;SDS011;16323;51.130;6.612;2022-10-16T11:55:04;0.70;;;0.17;;
29320;SDS011;16323;51.130;6.612;2022-10-16T11:57:39;0.60;;;0.20;;
29320;SDS011;16323;51.130;6.612;2022-10-16T12:00:14;0.43;;;0.22;;
29320;SDS011;16323;51.130;6.612;2022-10-16T12:02:50;0.52;;;0.25;;
29320;SDS011;16323;51.130;6.612;2022-10-16T12:05:24;1.20;;;0.35;;
29320;SDS011;16323;51.130;6.612;2022-10-16T12:08:01;0.70;;;0.30;;
29320;SDS011;16323;51.130;6.612;2022-10-16T12:10:34;0.52;;;0.20;;
29320;SDS011;16323;51.130;6.612;2022-10-16T12:13:02;0.10;;;0.10;;
29320;SDS011;16323;51.130;6.612;2022-10-16T12:15:31;0.43;;;0.20;;
29320;SDS011;16323;51.130;6.612;2022-10-16T12:17:59;0.35;;;0.20;;
29320;SDS011;16323;51.130;6.612;2022-10-16T12:20:28;0.28;;;0.20;;
29320;SDS011;16323;51.130;6.612;2022-10-16T12:22:57;0.30;;;0.20;;
29320;SDS011;16323;51.130;6.612;2022-10-16T12:25:27;0.30;;;0.20;;
29320;SDS011;16323;51.130;6.612;2022-10-16T12:28:00;0.10;;;0.08;;
29320;SDS011;16323;51.130;6.612;2022-10-16T12:30:31;0.20;;;0.20;;
29320;SDS011;16323;51.130;6.612;2022-10-16T12:33:00;0.65;;;0.28;;
29320;SDS011;16323;51.130;6.612;2022-10-16T12:35:30;0.30;;;0.30;;
29320;SDS011;16323;51.130;6.612;2022-10-16T12:38:06;0.85;;;0.30;;
29320;SDS011;16323;51.130;6.612;2022-10-16T12:40:39;0.10;;;0.00;;
29320;SDS011;16323;51.130;6.612;2022-10-16T12:43:11;0.30;;;0.13;;
29320;SDS011;16323;51.130;6.612;2022-10-16T12:45:59;0.10;;;0.10;;
29320;SDS011;16323;51.130;6.612;2022-10-16T12:48:27;0.30;;;0.13;;
29320;SDS011;16323;51.130;6.612;2022-10-16T12:50:55;0.20;;;0.20;;
29320;SDS011;16323;51.130;6.612;2022-10-16T12:53:22;0.38;;;0.30;;
29320;SDS011;16323;51.130;6.612;2022-10-16T12:55:53;0.10;;;0.08;;
29320;SDS011;16323;51.130;6.612;2022-10-16T12:58:38;0.20;;;0.10;;
29320;SDS011;16323;51.130;6.612;2022-10-16T13:01:29;0.30;;;0.10;;
29320;SDS011;16323;51.130;6.612;2022-10-16T13:04:06;0.77;;;0.30;;
29320;SDS011;16323;51.130;6.612;2022-10-16T13:06:45;0.20;;;0.20;;
29320;SDS011;16323;51.130;6.612;2022-10-16T13:09:19;0.20;;;0.20;;
29320;SDS011;16323;51.130;6.612;2022-10-16T13:12:02;0.85;;;0.30;;
29320;SDS011;16323;51.130;6.612;2022-10-16T13:14:52;0.45;;;0.17;;
29320;SDS011;16323;51.130;6.612;2022-10-16T13:17:42;0.55;;;0.17;;
29320;SDS011;16323;51.130;6.612;2022-10-16T13:20:16;0.95;;;0.15;;
29320;SDS011;16323;51.130;6.612;2022-10-16T13:22:55;0.00;;;0.00;;
29320;SDS011;16323;51.130;6.612;2022-10-16T13:25:31;0.15;;;0.10;;
29320;SDS011;16323;51.130;6.612;2022-10-16T13:28:07;0.57;;;0.20;;
29320;SDS011;16323;51.130;6.612;2022-10-16T13:30:36;0.40;;;0.20;;
29320;SDS011;16323;51.130;6.612;2022-10-16T13:33:11;1.20;;;0.20;;
29320;SDS011;16323;51.130;6.612;2022-10-16T13:35:46;0.15;;;0.15;;
29320;SDS011;16323;51.130;6.612;2022-10-16T13:38:17;0.30;;;0.10;;
29320;SDS011;16323;51.130;6.612;2022-10-16T13:40:48;0.13;;;0.10;;
29320;SDS011;16323;51.130;6.612;2022-10-16T13:43:17;0.55;;;0.17;;
29320;SDS011;16323;51.130;6.612;2022-10-16T13:45:52;0.30;;;0.10;;
29320;SDS011;16323;51.130;6.612;2022-10-16T13:48:21;0.70;;;0.20;;
29320;SDS011;16323;51.130;6.612;2022-10-16T13:50:58;0.20;;;0.10;;
29320;SDS011;16323;51.130;6.612;2022-10-16T13:53:25;0.13;;;0.10;;
29320;SDS011;16323;51.130;6.612;2022-10-16T13:55:52;0.52;;;0.20;;
29320;SDS011;16323;51.130;6.612;2022-10-16T13:58:19;0.00;;;0.00;;
29320;SDS011;16323;51.130;6.612;2022-10-16T14:00:53;0.10;;;0.05;;
29320;SDS011;16323;51.130;6.612;2022-10-16T14:03:22;0.63;;;0.03;;
29320;SDS011;16323;51.130;6.612;2022-10-16T14:05:51;0.98;;;0.13;;
29320;SDS011;16323;51.130;6.612;2022-10-16T14:08:19;0.20;;;0.10;;
29320;SDS011;16323;51.130;6.612;2022-10-16T14:13:47;0.28;;;0.10;;
29320;SDS011;16323;51.130;6.612;2022-10-16T14:16:16;0.10;;;0.10;;
29320;SDS011;16323;51.130;6.612;2022-10-16T14:18:53;0.10;;;0.10;;
29320;SDS011;16323;51.130;6.612;2022-10-16T14:21:23;0.15;;;0.10;;
29320;SDS011;16323;51.130;6.612;2022-10-16T14:23:51;0.30;;;0.30;;
29320;SDS011;16323;51.130;6.612;2022-10-16T15:58:52;0.80;;;0.20;;
29320;SDS011;16323;51.130;6.612;2022-10-16T17:59:49;0.50;;;0.40;;
